Sherman, South Dakota
Current Conditions -  °F | °C
As of 2:56 PM on Thursday 23 Oct 2014 (Local Time) from KFSD Reporting Station
Few Clouds Few Clouds  
Wind Chill: 20°   Ceiling: Unl
Heat Index: 20°   Visibility: 10mi
Dew Point:   Wind: 9mph
Humidity: 47%   Direction: 190°S
Pressure: 29.97"   Gusts: NA
Location:  43.7606°N, 96.5516°W
Report Text: KFSD 231956Z 19008KT 10SM FEW250 20/08 A2997 RMK AO2 SLP148 T02000083
Loading
Personal Weather Stations






























Interactive Weather Map
Tropical Storm Tracking
New forecast layout! Learn more

10-Day Weather Forecast

Advertisements
Track Severe Weather on mobile